Tuesday, July 17, 2018, 1:35 AM EDT
Back to Local

KLPR, Lorain County Regional Airport

Location: Elyria, OH, United States Lat: 41.35
Local Time: 1:35 AM EDT ( 5:35 GMT) Lon: -82.183
Time Zone: US/Eastern Elev: 793 ft

Show me the last for .
Show Decoded

2018-07-17 00:53 METAR KLPR 170453Z AUTO A2989 RMK AO2 SLPNO 403110211 PWINO $ =
2018-07-16 23:53 METAR KLPR 170353Z AUTO A2990 RMK AO2 LTG DSNT SE SLPNO PWINO $ =
2018-07-16 22:53 METAR KLPR 170253Z AUTO A2990 RMK AO2 SLPNO 60065 PWINO $ =
2018-07-16 21:53 METAR KLPR 170153Z AUTO A2988 RMK AO2 LTG DSNT E TSE05 SLPNO PWINO $ =
2018-07-16 21:18 METAR KLPR 170118Z AUTO A2988 RMK AO2 LTG DSNT E TSE05 PWINO $ =
2018-07-16 21:11 METAR KLPR 170111Z AUTO VCTS A2988 RMK AO2 LTG DSNT E TSE05 PWINO $ =
2018-07-16 20:53 METAR KLPR 170053Z AUTO TS A2989 RMK AO2 LTG DSNT NE AND E TSB03 SLPNO P0065
                 PWINO $ =
2018-07-16 20:38 METAR KLPR 170038Z AUTO TS A2989 RMK AO2 LTG DSNT NE AND E TSB03 P0065 PWINO $ =
2018-07-16 20:23 METAR KLPR 170023Z AUTO 26005KT 1SM +TSRA BKN033 BKN050 OVC070 23/19 A2989 RMK
                 AO2 WSHFT 2354 LTG DSNT NE AND E TSB03 P0061 T02280189 =
2018-07-16 20:18 METAR KLPR 170018Z AUTO VRB04G19KT 1/2SM +TSRA BKN026 BKN039 OVC048 23/19 A2988
                 RMK AO2 WSHFT 2354 LTG DSNT NE TSB03 P0056 T02280189 =
2018-07-16 20:08 METAR KLPR 170008Z AUTO 29014G20KT 3/4SM +TSRA BKN036 BKN049 OVC060 23/19 A2990
                 RMK AO2 WSHFT 2354 LTG DSNT NE AND W TSB03 P0029 T02330189 =
2018-07-16 19:58 METAR KLPR 162358Z AUTO 29012G20KT 1 3/4SM VCTS +RA FEW026 BKN038 OVC048 24/19
                 A2989 RMK AO2 LTG DSNT NE AND SE AND W P0009 T02390189 =
2018-07-16 19:53 METAR KLPR 162353Z AUTO 35008KT 10SM VCTS -RA BKN038 OVC048 24/19 A2988 RMK AO2
                 PK WND 33026/2341 LTG DSNT NE AND SE RAB30 SLP111 P0000 60002 T02390189 10311
                 20239 53004 =
2018-07-16 19:25 METAR KLPR 162325Z AUTO 33010G15KT 10SM VCTS SCT040 BKN049 BKN060 27/21 A2988
                 RMK AO2 LTG DSNT NE-S T02720206 =
2018-07-16 19:07 METAR KLPR 162307Z AUTO 35004KT 10SM FEW050 SCT060 27/21 A2988 RMK AO2 LTG DSNT
                 S T02720206 =
2018-07-16 18:53 METAR KLPR 162253Z AUTO 35006KT 10SM VCTS FEW043 SCT050 28/21 A2987 RMK AO2 LTG
                 DSNT SE SLP106 T02780206 =
2018-07-16 17:53 METAR KLPR 162153Z AUTO 21006KT 10SM BKN039 BKN049 30/20 A2987 RMK AO2 SLP106
                 T03000200 =
2018-07-16 15:53 METAR KLPR 161953Z AUTO 20011KT 10SM CLR 31/20 A2989 RMK AO2 SLP114 T03060200 =
2018-07-16 14:53 METAR KLPR 161853Z AUTO 19007KT 10SM CLR 29/21 A2992 RMK AO2 RAB05E34 TSB1754E09
                 SLP123 P0002 T02890206 =
2018-07-16 14:43 METAR KLPR 161843Z AUTO 17007KT 10SM FEW045 FEW065 28/19 A2992 RMK AO2 RAB05E34
                 TSB1754E09 P0002 T02780194 =
2018-07-16 14:15 METAR KLPR 161815Z AUTO 21011G22KT 9SM VCTS -RA FEW036 BKN060 BKN090 26/18 A2994
                 RMK AO2 RAB05 TSB1754E09 P0000 T02610178 =
2018-07-16 14:00 METAR KLPR 161800Z AUTO 23007KT 10SM TS FEW042 SCT065 BKN075 29/19 A2993 RMK AO2
                 TSB1754 T02940194 =
2018-07-16 13:53 METAR KLPR 161753Z AUTO 21010KT 10SM FEW039 SCT055 BKN095 30/19 A2994 RMK AO2
                 SLP130 T03000194 10306 20233 58016 =
2018-07-16 12:53 METAR KLPR 161653Z AUTO 24008KT 10SM FEW031 30/20 A2996 RMK AO2 SLP139 T03000200
                 =
2018-07-16 11:53 METAR KLPR 161553Z AUTO VRB04KT 10SM CLR 28/19 A2998 RMK AO2 SLP145 T02830194 =
2018-07-16 10:53 METAR KLPR 161453Z AUTO 23005G16KT 10SM SCT120 27/19 A2998 RMK AO2 SLP146
                 T02720194 55001 =
2018-07-16 09:53 METAR KLPR 161353Z AUTO 25007KT 10SM FEW110 26/19 A2998 RMK AO2 SLP146 T02610194
                 =
2018-07-16 08:53 METAR KLPR 161253Z AUTO 23004KT 10SM CLR 25/19 A2998 RMK AO2 SLP146 T02500189 =
2018-07-16 07:53 METAR KLPR 161153Z AUTO 22004KT 8SM CLR 23/18 A2999 RMK AO2 SLP147 T02330183
                 10233 20211 53001 =
2018-07-16 06:53 METAR KLPR 161053Z AUTO 20005KT 8SM CLR 23/18 A2998 RMK AO2 SLP145 T02280183 $ =
2018-07-16 05:53 METAR KLPR 160953Z AUTO 21004KT 9SM CLR 22/18 A2998 RMK AO2 SLP144 T02170178 $ =
2018-07-16 04:53 METAR KLPR 160853Z AUTO 25004KT 8SM CLR 21/18 A2998 RMK AO2 SLP146 T02110178
                 55002 $ =
2018-07-16 03:53 METAR KLPR 160753Z AUTO 23004KT 10SM CLR 22/18 A2998 RMK AO2 SLP145 T02170178 $
                 =
2018-07-16 02:53 METAR KLPR 160653Z AUTO 22004KT 10SM CLR 23/18 A2998 RMK AO2 SLP146 T02280178 $
                 =
2018-07-16 01:53 METAR KLPR 160553Z AUTO 22004KT 10SM CLR 22/18 A2999 RMK AO2 SLP148 T02220183
                 10300 20222 56002 $ =

Support USWX by starting your Amazon purchase here.